Terminal Aerodrome Forecast
Issued by NWS

Home | Current Version | Previous Version | Text Only | Print | Product List | Glossary On
Versions: 1 2 3 4 5 6 7 8 9 10 11 12 13 14 15
000
FTUS43 KLSX 242300
TAFCPS
TAF
KCPS 242336Z 2500/2524 VRB03KT P6SM FEW050 SCT250
     FM250900 VRB03KT 5SM BR FEW030 SCT250
      TEMPO 2511/2513 3SM BR
     FM251500 31007KT P6SM SKC=

USA.gov is the U.S. government's official web portal to all federal, state and local government web resources and services.